sensor_id;sensor_type;location;lat;lon;timestamp;P1;durP1;ratioP1;P2;durP2;ratioP2
21110;SDS011;10713;51.912;4.494;2022-10-16T00:01:22;5.30;;;1.70;;
21110;SDS011;10713;51.912;4.494;2022-10-16T00:03:49;7.32;;;1.67;;
21110;SDS011;10713;51.912;4.494;2022-10-16T00:06:15;3.03;;;1.52;;
21110;SDS011;10713;51.912;4.494;2022-10-16T00:08:42;2.63;;;1.50;;
21110;SDS011;10713;51.912;4.494;2022-10-16T00:11:09;2.65;;;1.30;;
21110;SDS011;10713;51.912;4.494;2022-10-16T00:13:36;3.50;;;1.30;;
21110;SDS011;10713;51.912;4.494;2022-10-16T00:16:02;3.65;;;1.33;;
21110;SDS011;10713;51.912;4.494;2022-10-16T00:18:28;2.25;;;1.38;;
21110;SDS011;10713;51.912;4.494;2022-10-16T00:20:54;2.88;;;1.08;;
21110;SDS011;10713;51.912;4.494;2022-10-16T00:23:20;2.28;;;1.45;;
21110;SDS011;10713;51.912;4.494;2022-10-16T00:25:57;4.03;;;1.23;;
21110;SDS011;10713;51.912;4.494;2022-10-16T00:28:23;2.63;;;1.30;;
21110;SDS011;10713;51.912;4.494;2022-10-16T00:30:49;3.67;;;1.40;;
21110;SDS011;10713;51.912;4.494;2022-10-16T00:33:14;3.17;;;1.27;;
21110;SDS011;10713;51.912;4.494;2022-10-16T00:35:40;5.95;;;1.65;;
21110;SDS011;10713;51.912;4.494;2022-10-16T00:38:05;2.53;;;1.50;;
21110;SDS011;10713;51.912;4.494;2022-10-16T00:40:31;3.25;;;1.50;;
21110;SDS011;10713;51.912;4.494;2022-10-16T00:42:56;5.00;;;1.48;;
21110;SDS011;10713;51.912;4.494;2022-10-16T00:45:22;3.33;;;1.60;;
21110;SDS011;10713;51.912;4.494;2022-10-16T00:47:47;2.45;;;1.40;;
21110;SDS011;10713;51.912;4.494;2022-10-16T00:52:58;4.43;;;1.67;;
21110;SDS011;10713;51.912;4.494;2022-10-16T00:55:25;4.90;;;1.70;;
21110;SDS011;10713;51.912;4.494;2022-10-16T00:57:52;6.75;;;1.80;;
21110;SDS011;10713;51.912;4.494;2022-10-16T01:00:20;3.35;;;1.70;;
21110;SDS011;10713;51.912;4.494;2022-10-16T01:05:21;2.93;;;1.60;;
21110;SDS011;10713;51.912;4.494;2022-10-16T01:13:11;3.50;;;1.98;;
21110;SDS011;10713;51.912;4.494;2022-10-16T01:18:18;3.47;;;1.92;;
21110;SDS011;10713;51.912;4.494;2022-10-16T01:20:47;3.85;;;2.00;;
21110;SDS011;10713;51.912;4.494;2022-10-16T01:23:43;3.53;;;1.90;;
21110;SDS011;10713;51.912;4.494;2022-10-16T01:27:09;3.67;;;2.03;;
21110;SDS011;10713;51.912;4.494;2022-10-16T01:29:34;4.05;;;2.08;;
21110;SDS011;10713;51.912;4.494;2022-10-16T01:32:14;3.38;;;1.92;;
21110;SDS011;10713;51.912;4.494;2022-10-16T01:34:48;5.25;;;1.88;;
21110;SDS011;10713;51.912;4.494;2022-10-16T01:37:21;2.55;;;1.85;;
21110;SDS011;10713;51.912;4.494;2022-10-16T01:39:51;5.20;;;2.28;;
21110;SDS011;10713;51.912;4.494;2022-10-16T01:42:24;3.08;;;1.85;;
21110;SDS011;10713;51.912;4.494;2022-10-16T01:44:56;4.72;;;2.00;;
21110;SDS011;10713;51.912;4.494;2022-10-16T01:47:24;3.25;;;2.38;;
21110;SDS011;10713;51.912;4.494;2022-10-16T01:49:51;3.35;;;2.22;;
21110;SDS011;10713;51.912;4.494;2022-10-16T01:52:19;4.32;;;2.28;;
21110;SDS011;10713;51.912;4.494;2022-10-16T01:54:48;3.55;;;2.17;;
21110;SDS011;10713;51.912;4.494;2022-10-16T01:57:17;4.18;;;2.10;;
21110;SDS011;10713;51.912;4.494;2022-10-16T01:59:46;4.38;;;2.47;;
21110;SDS011;10713;51.912;4.494;2022-10-16T02:02:18;3.55;;;2.30;;
21110;SDS011;10713;51.912;4.494;2022-10-16T02:04:48;4.20;;;2.45;;
21110;SDS011;10713;51.912;4.494;2022-10-16T02:07:19;5.28;;;2.60;;
21110;SDS011;10713;51.912;4.494;2022-10-16T02:09:45;4.90;;;2.10;;
21110;SDS011;10713;51.912;4.494;2022-10-16T02:12:14;4.15;;;2.63;;
21110;SDS011;10713;51.912;4.494;2022-10-16T02:14:46;6.43;;;2.45;;
21110;SDS011;10713;51.912;4.494;2022-10-16T02:17:12;3.33;;;2.00;;
21110;SDS011;10713;51.912;4.494;2022-10-16T02:19:39;5.28;;;2.30;;
21110;SDS011;10713;51.912;4.494;2022-10-16T02:22:07;4.05;;;2.20;;
21110;SDS011;10713;51.912;4.494;2022-10-16T02:24:46;6.18;;;2.38;;
21110;SDS011;10713;51.912;4.494;2022-10-16T02:27:32;3.65;;;2.10;;
21110;SDS011;10713;51.912;4.494;2022-10-16T02:30:20;4.05;;;2.40;;
21110;SDS011;10713;51.912;4.494;2022-10-16T02:32:50;4.90;;;2.05;;
21110;SDS011;10713;51.912;4.494;2022-10-16T02:35:18;4.25;;;1.90;;
21110;SDS011;10713;51.912;4.494;2022-10-16T02:37:46;3.33;;;1.98;;
21110;SDS011;10713;51.912;4.494;2022-10-16T02:40:13;2.75;;;1.90;;
21110;SDS011;10713;51.912;4.494;2022-10-16T02:42:39;7.20;;;2.50;;
21110;SDS011;10713;51.912;4.494;2022-10-16T02:45:05;4.32;;;1.90;;
21110;SDS011;10713;51.912;4.494;2022-10-16T02:47:32;2.55;;;1.70;;
21110;SDS011;10713;51.912;4.494;2022-10-16T02:49:58;6.13;;;2.30;;
21110;SDS011;10713;51.912;4.494;2022-10-16T02:52:23;3.95;;;1.73;;
21110;SDS011;10713;51.912;4.494;2022-10-16T02:54:49;4.53;;;1.77;;
21110;SDS011;10713;51.912;4.494;2022-10-16T02:57:14;5.72;;;2.03;;
21110;SDS011;10713;51.912;4.494;2022-10-16T02:59:39;2.80;;;1.70;;
21110;SDS011;10713;51.912;4.494;2022-10-16T03:02:05;3.13;;;1.90;;
21110;SDS011;10713;51.912;4.494;2022-10-16T03:04:30;8.43;;;1.98;;
21110;SDS011;10713;51.912;4.494;2022-10-16T03:06:55;4.78;;;1.85;;
21110;SDS011;10713;51.912;4.494;2022-10-16T03:09:22;4.30;;;1.75;;
21110;SDS011;10713;51.912;4.494;2022-10-16T03:11:47;4.80;;;2.40;;
21110;SDS011;10713;51.912;4.494;2022-10-16T03:14:12;5.78;;;2.00;;
21110;SDS011;10713;51.912;4.494;2022-10-16T03:16:38;4.55;;;1.98;;
21110;SDS011;10713;51.912;4.494;2022-10-16T03:19:03;8.50;;;2.10;;
21110;SDS011;10713;51.912;4.494;2022-10-16T03:21:28;2.90;;;1.88;;
21110;SDS011;10713;51.912;4.494;2022-10-16T03:23:54;4.10;;;2.00;;
21110;SDS011;10713;51.912;4.494;2022-10-16T03:26:20;3.20;;;1.77;;
21110;SDS011;10713;51.912;4.494;2022-10-16T03:28:45;3.95;;;2.08;;
21110;SDS011;10713;51.912;4.494;2022-10-16T03:31:10;3.50;;;2.13;;
21110;SDS011;10713;51.912;4.494;2022-10-16T03:33:35;3.92;;;1.90;;
21110;SDS011;10713;51.912;4.494;2022-10-16T03:36:01;4.13;;;2.53;;
21110;SDS011;10713;51.912;4.494;2022-10-16T03:38:26;4.78;;;2.15;;
21110;SDS011;10713;51.912;4.494;2022-10-16T03:40:52;3.63;;;1.70;;
21110;SDS011;10713;51.912;4.494;2022-10-16T03:43:17;3.35;;;1.73;;
21110;SDS011;10713;51.912;4.494;2022-10-16T03:45:42;5.35;;;1.90;;
21110;SDS011;10713;51.912;4.494;2022-10-16T03:48:08;2.65;;;1.85;;
21110;SDS011;10713;51.912;4.494;2022-10-16T03:50:33;7.82;;;2.20;;
21110;SDS011;10713;51.912;4.494;2022-10-16T03:52:59;11.35;;;2.05;;
21110;SDS011;10713;51.912;4.494;2022-10-16T03:55:24;6.55;;;2.42;;
21110;SDS011;10713;51.912;4.494;2022-10-16T03:57:49;2.72;;;1.88;;
21110;SDS011;10713;51.912;4.494;2022-10-16T04:00:15;3.80;;;1.83;;
21110;SDS011;10713;51.912;4.494;2022-10-16T04:02:40;5.32;;;1.90;;
21110;SDS011;10713;51.912;4.494;2022-10-16T04:05:05;2.95;;;1.77;;
21110;SDS011;10713;51.912;4.494;2022-10-16T04:07:31;4.72;;;2.20;;
21110;SDS011;10713;51.912;4.494;2022-10-16T04:09:57;3.85;;;2.05;;
21110;SDS011;10713;51.912;4.494;2022-10-16T04:12:23;6.00;;;2.58;;
21110;SDS011;10713;51.912;4.494;2022-10-16T04:14:49;4.03;;;1.80;;
21110;SDS011;10713;51.912;4.494;2022-10-16T04:17:14;8.07;;;2.45;;
21110;SDS011;10713;51.912;4.494;2022-10-16T04:19:39;3.08;;;2.20;;
21110;SDS011;10713;51.912;4.494;2022-10-16T04:22:05;4.68;;;2.00;;
21110;SDS011;10713;51.912;4.494;2022-10-16T04:24:30;5.65;;;2.30;;
21110;SDS011;10713;51.912;4.494;2022-10-16T04:26:55;6.45;;;2.30;;
21110;SDS011;10713;51.912;4.494;2022-10-16T04:29:21;5.32;;;2.10;;
21110;SDS011;10713;51.912;4.494;2022-10-16T04:31:46;6.88;;;2.50;;
21110;SDS011;10713;51.912;4.494;2022-10-16T04:34:12;7.95;;;2.72;;
21110;SDS011;10713;51.912;4.494;2022-10-16T04:36:37;4.57;;;2.20;;
21110;SDS011;10713;51.912;4.494;2022-10-16T04:39:02;3.80;;;2.40;;
21110;SDS011;10713;51.912;4.494;2022-10-16T04:41:28;5.65;;;2.40;;
21110;SDS011;10713;51.912;4.494;2022-10-16T04:43:53;4.55;;;2.25;;
21110;SDS011;10713;51.912;4.494;2022-10-16T04:46:19;5.47;;;2.45;;
21110;SDS011;10713;51.912;4.494;2022-10-16T04:48:44;3.17;;;2.35;;
21110;SDS011;10713;51.912;4.494;2022-10-16T04:51:10;5.28;;;2.00;;
21110;SDS011;10713;51.912;4.494;2022-10-16T04:53:35;6.78;;;2.50;;
21110;SDS011;10713;51.912;4.494;2022-10-16T04:56:01;6.43;;;2.25;;
21110;SDS011;10713;51.912;4.494;2022-10-16T04:58:27;7.30;;;2.50;;
21110;SDS011;10713;51.912;4.494;2022-10-16T05:00:52;8.02;;;2.60;;
21110;SDS011;10713;51.912;4.494;2022-10-16T05:03:18;4.07;;;2.65;;
21110;SDS011;10713;51.912;4.494;2022-10-16T05:05:44;5.57;;;2.30;;
21110;SDS011;10713;51.912;4.494;2022-10-16T05:08:11;5.22;;;2.20;;
21110;SDS011;10713;51.912;4.494;2022-10-16T05:10:38;5.70;;;2.17;;
21110;SDS011;10713;51.912;4.494;2022-10-16T05:13:03;4.50;;;2.30;;
21110;SDS011;10713;51.912;4.494;2022-10-16T05:15:28;4.03;;;1.85;;
21110;SDS011;10713;51.912;4.494;2022-10-16T05:17:54;5.80;;;2.50;;
21110;SDS011;10713;51.912;4.494;2022-10-16T05:20:21;3.78;;;2.22;;
21110;SDS011;10713;51.912;4.494;2022-10-16T05:22:47;5.13;;;2.40;;
21110;SDS011;10713;51.912;4.494;2022-10-16T05:25:12;6.60;;;2.67;;
21110;SDS011;10713;51.912;4.494;2022-10-16T05:27:38;7.00;;;2.40;;
21110;SDS011;10713;51.912;4.494;2022-10-16T05:30:03;8.90;;;2.60;;
21110;SDS011;10713;51.912;4.494;2022-10-16T05:32:29;5.10;;;2.38;;
21110;SDS011;10713;51.912;4.494;2022-10-16T05:34:54;3.90;;;2.25;;
21110;SDS011;10713;51.912;4.494;2022-10-16T05:37:20;5.50;;;2.10;;
21110;SDS011;10713;51.912;4.494;2022-10-16T05:39:45;5.72;;;2.17;;
21110;SDS011;10713;51.912;4.494;2022-10-16T05:42:10;4.03;;;2.00;;
21110;SDS011;10713;51.912;4.494;2022-10-16T05:44:36;3.75;;;2.10;;
21110;SDS011;10713;51.912;4.494;2022-10-16T05:47:01;4.53;;;2.13;;
21110;SDS011;10713;51.912;4.494;2022-10-16T05:49:26;9.30;;;2.05;;
21110;SDS011;10713;51.912;4.494;2022-10-16T05:51:52;5.03;;;2.05;;
21110;SDS011;10713;51.912;4.494;2022-10-16T05:54:17;3.20;;;1.88;;
21110;SDS011;10713;51.912;4.494;2022-10-16T05:56:43;5.28;;;1.90;;
21110;SDS011;10713;51.912;4.494;2022-10-16T05:59:08;4.43;;;2.03;;
21110;SDS011;10713;51.912;4.494;2022-10-16T06:01:33;5.25;;;2.05;;
21110;SDS011;10713;51.912;4.494;2022-10-16T06:04:00;5.10;;;1.98;;
21110;SDS011;10713;51.912;4.494;2022-10-16T06:06:26;8.02;;;1.98;;
21110;SDS011;10713;51.912;4.494;2022-10-16T06:08:53;4.97;;;1.92;;
21110;SDS011;10713;51.912;4.494;2022-10-16T06:11:21;8.43;;;1.75;;
21110;SDS011;10713;51.912;4.494;2022-10-16T06:13:49;5.72;;;1.63;;
21110;SDS011;10713;51.912;4.494;2022-10-16T06:16:15;3.38;;;1.30;;
21110;SDS011;10713;51.912;4.494;2022-10-16T06:18:41;2.92;;;1.25;;
21110;SDS011;10713;51.912;4.494;2022-10-16T06:21:10;6.40;;;1.33;;
21110;SDS011;10713;51.912;4.494;2022-10-16T06:23:37;3.70;;;1.42;;
21110;SDS011;10713;51.912;4.494;2022-10-16T06:26:10;5.28;;;1.50;;
21110;SDS011;10713;51.912;4.494;2022-10-16T06:28:37;4.60;;;1.38;;
21110;SDS011;10713;51.912;4.494;2022-10-16T06:31:03;8.07;;;1.52;;
21110;SDS011;10713;51.912;4.494;2022-10-16T06:33:30;8.85;;;1.30;;
21110;SDS011;10713;51.912;4.494;2022-10-16T06:36:05;6.97;;;1.38;;
21110;SDS011;10713;51.912;4.494;2022-10-16T06:38:35;5.90;;;1.65;;
21110;SDS011;10713;51.912;4.494;2022-10-16T06:41:01;3.78;;;2.13;;
21110;SDS011;10713;51.912;4.494;2022-10-16T06:43:31;7.90;;;1.90;;
21110;SDS011;10713;51.912;4.494;2022-10-16T06:45:57;24.08;;;4.00;;
21110;SDS011;10713;51.912;4.494;2022-10-16T06:48:24;9.13;;;2.30;;
21110;SDS011;10713;51.912;4.494;2022-10-16T06:53:31;9.25;;;2.00;;
21110;SDS011;10713;51.912;4.494;2022-10-16T06:56:01;4.95;;;1.63;;
21110;SDS011;10713;51.912;4.494;2022-10-16T06:58:31;9.32;;;1.88;;
21110;SDS011;10713;51.912;4.494;2022-10-16T07:00:57;8.55;;;1.92;;
21110;SDS011;10713;51.912;4.494;2022-10-16T07:03:23;7.82;;;1.67;;
21110;SDS011;10713;51.912;4.494;2022-10-16T07:05:48;7.40;;;1.80;;
21110;SDS011;10713;51.912;4.494;2022-10-16T07:08:13;5.45;;;2.10;;
21110;SDS011;10713;51.912;4.494;2022-10-16T07:10:39;12.15;;;2.00;;
21110;SDS011;10713;51.912;4.494;2022-10-16T07:13:04;7.65;;;2.35;;
21110;SDS011;10713;51.912;4.494;2022-10-16T07:15:30;6.63;;;1.77;;
21110;SDS011;10713;51.912;4.494;2022-10-16T07:17:55;6.97;;;1.95;;
21110;SDS011;10713;51.912;4.494;2022-10-16T07:20:20;6.45;;;1.52;;
21110;SDS011;10713;51.912;4.494;2022-10-16T07:22:46;5.95;;;1.42;;
21110;SDS011;10713;51.912;4.494;2022-10-16T07:25:11;6.63;;;1.60;;
21110;SDS011;10713;51.912;4.494;2022-10-16T07:27:37;5.95;;;1.60;;
21110;SDS011;10713;51.912;4.494;2022-10-16T07:30:03;4.63;;;1.40;;
21110;SDS011;10713;51.912;4.494;2022-10-16T07:32:28;4.13;;;1.50;;
21110;SDS011;10713;51.912;4.494;2022-10-16T07:34:54;5.55;;;1.60;;
21110;SDS011;10713;51.912;4.494;2022-10-16T07:37:20;5.38;;;1.70;;
21110;SDS011;10713;51.912;4.494;2022-10-16T07:39:46;4.70;;;1.63;;
21110;SDS011;10713;51.912;4.494;2022-10-16T07:42:11;6.05;;;1.55;;
21110;SDS011;10713;51.912;4.494;2022-10-16T07:44:37;4.03;;;1.50;;
21110;SDS011;10713;51.912;4.494;2022-10-16T07:47:02;3.63;;;1.10;;
21110;SDS011;10713;51.912;4.494;2022-10-16T07:49:27;2.88;;;1.40;;
21110;SDS011;10713;51.912;4.494;2022-10-16T07:51:53;3.53;;;1.27;;
21110;SDS011;10713;51.912;4.494;2022-10-16T07:54:18;6.82;;;1.20;;
21110;SDS011;10713;51.912;4.494;2022-10-16T07:56:43;6.75;;;1.52;;
21110;SDS011;10713;51.912;4.494;2022-10-16T07:59:09;4.00;;;1.00;;
21110;SDS011;10713;51.912;4.494;2022-10-16T08:01:34;7.50;;;1.40;;
21110;SDS011;10713;51.912;4.494;2022-10-16T08:04:00;5.07;;;1.10;;
21110;SDS011;10713;51.912;4.494;2022-10-16T08:06:25;6.40;;;1.30;;
21110;SDS011;10713;51.912;4.494;2022-10-16T08:08:50;4.25;;;1.35;;
21110;SDS011;10713;51.912;4.494;2022-10-16T08:11:16;4.45;;;1.35;;
21110;SDS011;10713;51.912;4.494;2022-10-16T08:13:41;5.38;;;1.30;;
21110;SDS011;10713;51.912;4.494;2022-10-16T08:16:07;5.07;;;1.80;;
21110;SDS011;10713;51.912;4.494;2022-10-16T08:18:35;5.20;;;1.40;;
21110;SDS011;10713;51.912;4.494;2022-10-16T08:21:01;6.38;;;1.60;;
21110;SDS011;10713;51.912;4.494;2022-10-16T08:23:28;6.30;;;1.30;;
21110;SDS011;10713;51.912;4.494;2022-10-16T08:25:54;5.68;;;1.48;;
21110;SDS011;10713;51.912;4.494;2022-10-16T08:28:20;6.47;;;1.67;;
21110;SDS011;10713;51.912;4.494;2022-10-16T08:30:46;7.43;;;1.38;;
21110;SDS011;10713;51.912;4.494;2022-10-16T08:33:11;5.47;;;1.50;;
21110;SDS011;10713;51.912;4.494;2022-10-16T08:35:37;7.80;;;1.45;;
21110;SDS011;10713;51.912;4.494;2022-10-16T08:38:03;6.47;;;1.33;;
21110;SDS011;10713;51.912;4.494;2022-10-16T08:40:32;4.63;;;1.40;;
21110;SDS011;10713;51.912;4.494;2022-10-16T08:50:55;4.95;;;1.20;;
21110;SDS011;10713;51.912;4.494;2022-10-16T08:53:24;5.35;;;1.60;;
21110;SDS011;10713;51.912;4.494;2022-10-16T08:55:56;5.40;;;1.35;;
21110;SDS011;10713;51.912;4.494;2022-10-16T08:58:26;7.22;;;1.40;;
21110;SDS011;10713;51.912;4.494;2022-10-16T09:00:53;9.43;;;1.73;;
21110;SDS011;10713;51.912;4.494;2022-10-16T09:14:21;5.90;;;1.75;;
21110;SDS011;10713;51.912;4.494;2022-10-16T09:17:15;9.95;;;1.88;;
21110;SDS011;10713;51.912;4.494;2022-10-16T09:19:51;5.95;;;1.30;;
21110;SDS011;10713;51.912;4.494;2022-10-16T09:22:32;7.80;;;1.65;;
21110;SDS011;10713;51.912;4.494;2022-10-16T09:25:00;7.75;;;1.85;;
21110;SDS011;10713;51.912;4.494;2022-10-16T09:27:37;6.00;;;1.88;;
21110;SDS011;10713;51.912;4.494;2022-10-16T09:30:21;8.25;;;1.52;;
21110;SDS011;10713;51.912;4.494;2022-10-16T09:32:48;7.20;;;1.77;;
21110;SDS011;10713;51.912;4.494;2022-10-16T09:35:18;5.50;;;1.73;;
21110;SDS011;10713;51.912;4.494;2022-10-16T09:38:04;8.63;;;1.90;;
21110;SDS011;10713;51.912;4.494;2022-10-16T09:40:30;7.22;;;1.50;;
21110;SDS011;10713;51.912;4.494;2022-10-16T09:43:03;12.40;;;2.78;;
21110;SDS011;10713;51.912;4.494;2022-10-16T09:45:31;8.77;;;1.83;;
21110;SDS011;10713;51.912;4.494;2022-10-16T09:47:56;25.35;;;2.05;;
21110;SDS011;10713;51.912;4.494;2022-10-16T09:50:23;9.35;;;1.83;;
21110;SDS011;10713;51.912;4.494;2022-10-16T09:52:51;12.95;;;2.30;;
21110;SDS011;10713;51.912;4.494;2022-10-16T09:55:28;6.47;;;1.70;;
21110;SDS011;10713;51.912;4.494;2022-10-16T09:57:54;8.40;;;1.77;;
21110;SDS011;10713;51.912;4.494;2022-10-16T10:00:21;8.68;;;1.70;;
21110;SDS011;10713;51.912;4.494;2022-10-16T10:02:47;9.05;;;2.10;;
21110;SDS011;10713;51.912;4.494;2022-10-16T10:07:56;8.50;;;2.22;;
21110;SDS011;10713;51.912;4.494;2022-10-16T10:10:28;12.07;;;1.98;;
21110;SDS011;10713;51.912;4.494;2022-10-16T10:12:55;8.82;;;1.67;;
21110;SDS011;10713;51.912;4.494;2022-10-16T10:15:21;6.85;;;1.73;;
21110;SDS011;10713;51.912;4.494;2022-10-16T10:20:25;11.00;;;2.10;;
21110;SDS011;10713;51.912;4.494;2022-10-16T10:22:54;10.70;;;1.90;;
21110;SDS011;10713;51.912;4.494;2022-10-16T10:33:29;7.72;;;1.90;;
21110;SDS011;10713;51.912;4.494;2022-10-16T10:38:48;10.18;;;2.05;;
21110;SDS011;10713;51.912;4.494;2022-10-16T10:46:37;13.45;;;1.95;;
21110;SDS011;10713;51.912;4.494;2022-10-16T10:54:50;8.30;;;1.90;;
21110;SDS011;10713;51.912;4.494;2022-10-16T11:03:13;9.95;;;2.00;;
21110;SDS011;10713;51.912;4.494;2022-10-16T11:06:08;8.68;;;1.70;;
21110;SDS011;10713;51.912;4.494;2022-10-16T11:08:41;11.65;;;1.98;;
21110;SDS011;10713;51.912;4.494;2022-10-16T11:14:11;5.80;;;1.60;;
21110;SDS011;10713;51.912;4.494;2022-10-16T11:16:43;10.00;;;1.85;;
21110;SDS011;10713;51.912;4.494;2022-10-16T11:22:09;10.85;;;2.17;;
21110;SDS011;10713;51.912;4.494;2022-10-16T11:24:42;9.02;;;1.67;;
21110;SDS011;10713;51.912;4.494;2022-10-16T11:27:17;11.65;;;2.55;;
21110;SDS011;10713;51.912;4.494;2022-10-16T11:29:51;12.15;;;1.73;;
21110;SDS011;10713;51.912;4.494;2022-10-16T11:32:33;8.77;;;1.90;;
21110;SDS011;10713;51.912;4.494;2022-10-16T11:35:24;10.90;;;1.88;;
21110;SDS011;10713;51.912;4.494;2022-10-16T11:37:58;10.23;;;1.65;;
21110;SDS011;10713;51.912;4.494;2022-10-16T11:40:32;12.02;;;2.03;;
21110;SDS011;10713;51.912;4.494;2022-10-16T11:43:21;4.75;;;1.50;;
21110;SDS011;10713;51.912;4.494;2022-10-16T11:46:04;10.73;;;1.73;;
21110;SDS011;10713;51.912;4.494;2022-10-16T11:48:39;9.18;;;1.88;;
21110;SDS011;10713;51.912;4.494;2022-10-16T11:51:33;6.85;;;1.65;;
21110;SDS011;10713;51.912;4.494;2022-10-16T11:54:05;11.15;;;1.88;;
21110;SDS011;10713;51.912;4.494;2022-10-16T11:56:41;7.93;;;1.75;;
21110;SDS011;10713;51.912;4.494;2022-10-16T11:59:16;12.05;;;1.67;;
21110;SDS011;10713;51.912;4.494;2022-10-16T12:04:51;8.50;;;1.30;;
21110;SDS011;10713;51.912;4.494;2022-10-16T12:07:27;9.57;;;1.80;;
21110;SDS011;10713;51.912;4.494;2022-10-16T12:10:10;10.35;;;1.65;;
21110;SDS011;10713;51.912;4.494;2022-10-16T12:12:43;15.25;;;1.77;;
21110;SDS011;10713;51.912;4.494;2022-10-16T12:15:21;11.15;;;2.05;;
21110;SDS011;10713;51.912;4.494;2022-10-16T12:17:52;8.57;;;1.63;;
21110;SDS011;10713;51.912;4.494;2022-10-16T12:22:48;8.23;;;1.98;;
21110;SDS011;10713;51.912;4.494;2022-10-16T12:28:06;14.32;;;2.63;;
21110;SDS011;10713;51.912;4.494;2022-10-16T12:30:41;11.95;;;2.00;;
21110;SDS011;10713;51.912;4.494;2022-10-16T12:33:19;14.88;;;1.98;;
21110;SDS011;10713;51.912;4.494;2022-10-16T12:35:48;10.10;;;1.70;;
21110;SDS011;10713;51.912;4.494;2022-10-16T12:38:31;13.65;;;2.25;;
21110;SDS011;10713;51.912;4.494;2022-10-16T12:41:06;166.18;;;35.88;;
21110;SDS011;10713;51.912;4.494;2022-10-16T12:43:44;253.20;;;72.28;;
21110;SDS011;10713;51.912;4.494;2022-10-16T12:48:36;202.20;;;59.17;;
21110;SDS011;10713;51.912;4.494;2022-10-16T12:59:53;147.23;;;40.38;;
21110;SDS011;10713;51.912;4.494;2022-10-16T13:17:13;22.23;;;5.53;;
21110;SDS011;10713;51.912;4.494;2022-10-16T13:20:03;98.00;;;26.15;;
21110;SDS011;10713;51.912;4.494;2022-10-16T13:22:41;33.85;;;8.32;;
21110;SDS011;10713;51.912;4.494;2022-10-16T13:28:27;51.75;;;13.65;;
21110;SDS011;10713;51.912;4.494;2022-10-16T13:30:56;95.72;;;22.55;;
21110;SDS011;10713;51.912;4.494;2022-10-16T13:36:03;16.17;;;3.83;;
21110;SDS011;10713;51.912;4.494;2022-10-16T13:38:30;15.75;;;4.30;;
21110;SDS011;10713;51.912;4.494;2022-10-16T13:40:58;30.33;;;9.10;;
21110;SDS011;10713;51.912;4.494;2022-10-16T13:43:49;59.28;;;16.65;;
21110;SDS011;10713;51.912;4.494;2022-10-16T13:46:17;26.83;;;6.65;;
21110;SDS011;10713;51.912;4.494;2022-10-16T13:48:44;54.92;;;16.33;;
21110;SDS011;10713;51.912;4.494;2022-10-16T13:53:40;19.25;;;4.80;;
21110;SDS011;10713;51.912;4.494;2022-10-16T13:56:07;54.97;;;15.50;;
21110;SDS011;10713;51.912;4.494;2022-10-16T13:58:36;81.88;;;25.05;;
21110;SDS011;10713;51.912;4.494;2022-10-16T14:01:03;30.48;;;7.32;;
21110;SDS011;10713;51.912;4.494;2022-10-16T14:03:30;40.92;;;12.25;;
21110;SDS011;10713;51.912;4.494;2022-10-16T14:05:58;47.53;;;13.30;;
21110;SDS011;10713;51.912;4.494;2022-10-16T14:08:26;62.05;;;18.90;;
21110;SDS011;10713;51.912;4.494;2022-10-16T14:10:55;68.05;;;19.60;;
21110;SDS011;10713;51.912;4.494;2022-10-16T14:13:26;32.53;;;8.98;;
21110;SDS011;10713;51.912;4.494;2022-10-16T14:15:55;38.22;;;9.80;;
21110;SDS011;10713;51.912;4.494;2022-10-16T14:18:24;23.63;;;6.78;;
21110;SDS011;10713;51.912;4.494;2022-10-16T14:20:51;36.75;;;10.95;;
21110;SDS011;10713;51.912;4.494;2022-10-16T14:23:28;15.43;;;2.67;;
21110;SDS011;10713;51.912;4.494;2022-10-16T14:28:38;34.30;;;8.68;;
21110;SDS011;10713;51.912;4.494;2022-10-16T14:31:23;15.55;;;3.83;;
21110;SDS011;10713;51.912;4.494;2022-10-16T14:33:49;19.25;;;3.22;;
21110;SDS011;10713;51.912;4.494;2022-10-16T14:36:14;17.85;;;5.40;;
21110;SDS011;10713;51.912;4.494;2022-10-16T14:38:48;16.70;;;2.88;;
21110;SDS011;10713;51.912;4.494;2022-10-16T14:41:22;25.23;;;7.32;;
21110;SDS011;10713;51.912;4.494;2022-10-16T14:43:50;12.32;;;2.50;;
21110;SDS011;10713;51.912;4.494;2022-10-16T14:46:19;44.63;;;11.73;;
21110;SDS011;10713;51.912;4.494;2022-10-16T14:48:47;20.33;;;5.47;;
21110;SDS011;10713;51.912;4.494;2022-10-16T14:51:18;29.02;;;7.65;;
21110;SDS011;10713;51.912;4.494;2022-10-16T14:53:45;27.00;;;6.60;;
21110;SDS011;10713;51.912;4.494;2022-10-16T14:56:21;13.05;;;2.30;;
21110;SDS011;10713;51.912;4.494;2022-10-16T14:58:52;12.90;;;3.10;;
21110;SDS011;10713;51.912;4.494;2022-10-16T15:01:18;12.10;;;2.83;;
21110;SDS011;10713;51.912;4.494;2022-10-16T15:03:44;13.30;;;2.30;;
21110;SDS011;10713;51.912;4.494;2022-10-16T15:06:10;26.60;;;7.25;;
21110;SDS011;10713;51.912;4.494;2022-10-16T15:08:37;16.13;;;3.20;;
21110;SDS011;10713;51.912;4.494;2022-10-16T15:11:02;12.45;;;4.15;;
21110;SDS011;10713;51.912;4.494;2022-10-16T15:13:28;19.92;;;5.70;;
21110;SDS011;10713;51.912;4.494;2022-10-16T15:15:53;9.70;;;2.20;;
21110;SDS011;10713;51.912;4.494;2022-10-16T15:18:19;9.48;;;2.22;;
21110;SDS011;10713;51.912;4.494;2022-10-16T15:20:45;11.25;;;2.20;;
21110;SDS011;10713;51.912;4.494;2022-10-16T15:23:18;13.35;;;3.28;;
21110;SDS011;10713;51.912;4.494;2022-10-16T15:28:16;16.08;;;3.72;;
21110;SDS011;10713;51.912;4.494;2022-10-16T15:30:42;13.65;;;3.17;;
21110;SDS011;10713;51.912;4.494;2022-10-16T15:33:15;16.95;;;3.30;;
21110;SDS011;10713;51.912;4.494;2022-10-16T15:35:46;17.05;;;3.75;;
21110;SDS011;10713;51.912;4.494;2022-10-16T15:38:13;18.05;;;3.42;;
21110;SDS011;10713;51.912;4.494;2022-10-16T15:40:40;12.60;;;2.72;;
21110;SDS011;10713;51.912;4.494;2022-10-16T15:43:06;8.52;;;1.80;;
21110;SDS011;10713;51.912;4.494;2022-10-16T15:45:32;12.95;;;3.67;;
21110;SDS011;10713;51.912;4.494;2022-10-16T15:47:57;13.73;;;2.67;;
21110;SDS011;10713;51.912;4.494;2022-10-16T15:50:22;16.05;;;2.70;;
21110;SDS011;10713;51.912;4.494;2022-10-16T15:52:49;10.15;;;2.00;;
21110;SDS011;10713;51.912;4.494;2022-10-16T15:55:15;13.95;;;2.65;;
21110;SDS011;10713;51.912;4.494;2022-10-16T15:57:40;11.98;;;2.80;;
21110;SDS011;10713;51.912;4.494;2022-10-16T16:00:08;14.00;;;2.70;;
21110;SDS011;10713;51.912;4.494;2022-10-16T16:02:36;15.30;;;2.20;;
21110;SDS011;10713;51.912;4.494;2022-10-16T16:05:01;14.23;;;2.78;;
21110;SDS011;10713;51.912;4.494;2022-10-16T16:07:27;11.05;;;2.80;;
21110;SDS011;10713;51.912;4.494;2022-10-16T16:09:52;21.70;;;6.35;;
21110;SDS011;10713;51.912;4.494;2022-10-16T16:12:18;13.95;;;4.22;;
21110;SDS011;10713;51.912;4.494;2022-10-16T16:14:43;16.52;;;3.15;;
21110;SDS011;10713;51.912;4.494;2022-10-16T16:17:11;16.77;;;3.65;;
21110;SDS011;10713;51.912;4.494;2022-10-16T16:19:36;15.23;;;3.03;;
21110;SDS011;10713;51.912;4.494;2022-10-16T16:22:01;12.50;;;2.72;;
21110;SDS011;10713;51.912;4.494;2022-10-16T16:24:27;12.68;;;3.10;;
21110;SDS011;10713;51.912;4.494;2022-10-16T16:26:52;9.77;;;3.03;;
21110;SDS011;10713;51.912;4.494;2022-10-16T16:29:17;14.77;;;3.28;;
21110;SDS011;10713;51.912;4.494;2022-10-16T16:31:43;18.65;;;3.95;;
21110;SDS011;10713;51.912;4.494;2022-10-16T16:34:09;13.63;;;3.25;;
21110;SDS011;10713;51.912;4.494;2022-10-16T16:36:34;17.23;;;3.58;;
21110;SDS011;10713;51.912;4.494;2022-10-16T16:39:00;17.05;;;3.78;;
21110;SDS011;10713;51.912;4.494;2022-10-16T16:41:28;14.40;;;3.38;;
21110;SDS011;10713;51.912;4.494;2022-10-16T16:43:55;13.40;;;3.20;;
21110;SDS011;10713;51.912;4.494;2022-10-16T16:46:25;12.95;;;4.18;;
21110;SDS011;10713;51.912;4.494;2022-10-16T16:48:51;14.60;;;3.00;;
21110;SDS011;10713;51.912;4.494;2022-10-16T16:51:18;15.52;;;3.35;;
21110;SDS011;10713;51.912;4.494;2022-10-16T16:53:48;9.10;;;2.50;;